Buoy 44845

sailwx.info

Track history (hours):
 
Tides and Currents Weather Stations Pressure Air Temp Water Temp Dewpoint Dewpoint Depression Visibility Wind Speed Wind Dir Waves Ship Positions

Drifting buoy 44845

Last reported at 2015-Apr-18 16:01 UTC. Time now 2015-Apr-19 09:30 UTC.
Position N 73°41' E 009°35'.

Water temperature 4.5 ° C

Date/timePositionNaut miles runAvg speedWind from/ knotsBaromVisibWave heightAir tempDewpointWater temp
2015-Apr-18 16:01N 73°41' E 009°35'0 0.4 4.5
2015-Apr-18 15:01N 73°41' E 009°34'1 0.6 4.5
2015-Apr-18 14:01N 73°40' E 009°33'7 0.2 4.5
2015-Apr-17 08:01N 73°43' E 009°10'0 0.3 4.2
2015-Apr-17 07:01N 73°43' E 009°09'0 0.2 4.2
2015-Apr-17 06:01N 73°43' E 009°09'0 0.3 4.3
2015-Apr-17 05:01N 73°44' E 009°09'0 0.3 4.3
2015-Apr-17 04:01N 73°44' E 009°09'0 0.3 4.3
2015-Apr-17 03:01N 73°44' E 009°09'0 0.3 4.2
2015-Apr-17 02:01N 73°44' E 009°08'0 0.3 4.2
2015-Apr-17 01:01N 73°45' E 009°07'0 0.4 4.3
2015-Apr-17 00:01N 73°44' E 009°06'0 0.5 4.3
2015-Apr-16 23:01N 73°44' E 009°05'1 0.5 4.2
2015-Apr-16 22:01N 73°44' E 009°03'1 0.6 4.2
2015-Apr-16 21:01N 73°43' E 009°02'1 0.6 4.1
2015-Apr-16 20:01N 73°43' E 009°01'1 0.6 4.1
2015-Apr-16 19:01N 73°42' E 008°60'1 0.5 4.0
2015-Apr-16 18:01N 73°42' E 008°58'1 0.6 4.0
2015-Apr-16 17:01N 73°42' E 008°56'1 0.8 4.1
2015-Apr-16 16:01N 73°42' E 008°53'1 1.0 4.2
2015-Apr-16 15:01N 73°42' E 008°50'1 1.1 4.3
2015-Apr-16 14:01N 73°42' E 008°46'1 1.2 4.3
2015-Apr-16 13:01N 73°41' E 008°42'1 1.2 4.3
2015-Apr-16 12:01N 73°41' E 008°38'1 1.2 4.3
2015-Apr-16 11:01N 73°40' E 008°34'1 1.1 4.3
2015-Apr-16 10:01N 73°40' E 008°31'1 1.1 4.3
2015-Apr-16 09:01N 73°39' E 008°27'1 1.1 4.3
2015-Apr-16 08:01N 73°39' E 008°24'2 0.9 4.3
2015-Apr-16 06:01N 73°37' E 008°20'1 0.8 4.3
2015-Apr-16 05:01N 73°37' E 008°18'1 0.8 4.3
2015-Apr-16 04:01N 73°36' E 008°17'1 0.8 4.3
2015-Apr-16 03:01N 73°35' E 008°15'1 0.7 4.3
2015-Apr-16 02:01N 73°35' E 008°14'1 0.8 4.3
2015-Apr-16 01:01N 73°34' E 008°14'1 0.7 4.3
2015-Apr-16 00:01N 73°33' E 008°13'1 0.7 4.3
2015-Apr-15 23:01N 73°33' E 008°13'1 0.6 4.3
2015-Apr-15 22:01N 73°32' E 008°13'1 0.5 4.3
2015-Apr-15 21:01N 73°32' E 008°13'1 0.6 4.3
2015-Apr-15 20:01N 73°31' E 008°13'1 0.5 4.3
2015-Apr-15 19:01N 73°30' E 008°13'0 0.5 4.3
2015-Apr-15 18:01N 73°30' E 008°14'1 0.6 4.4
2015-Apr-15 17:01N 73°29' E 008°14'0 0.5 4.4
2015-Apr-15 16:01N 73°29' E 008°15'1 0.5 4.4
2015-Apr-15 15:01N 73°28' E 008°15'1 0.6 4.4
2015-Apr-15 14:01N 73°28' E 008°15'1 0.6 4.3
2015-Apr-15 13:01N 73°27' E 008°16'1 0.5 4.3
2015-Apr-15 12:01N 73°27' E 008°16'1 0.7 4.3
2015-Apr-15 11:01N 73°26' E 008°16'1 0.7 4.3
2015-Apr-15 10:01N 73°25' E 008°17'1 0.7 4.3
2015-Apr-15 09:01N 73°25' E 008°17'1 0.6 4.3
2015-Apr-15 08:01N 73°24' E 008°17'1 0.6 4.3
2015-Apr-15 07:01N 73°24' E 008°18'1 0.5 4.3
2015-Apr-15 06:01N 73°23' E 008°19'1 1.0 4.3
2015-Apr-15 05:01N 73°22' E 008°20'0 0.0 4.3
2015-Apr-15 04:01N 73°22' E 008°20'1 0.5 4.3
2015-Apr-15 03:01N 73°22' E 008°21'1 0.5 4.3
2015-Apr-15 02:01N 73°21' E 008°22'1 0.6 4.2
2015-Apr-15 01:01N 73°21' E 008°23'1 0.5 4.3
2015-Apr-15 00:01N 73°20' E 008°24'1 1.1 4.3
2015-Apr-14 23:01N 73°20' E 008°26'0 0.0 4.3
2015-Apr-14 22:01N 73°20' E 008°26'1 0.6 4.3
2015-Apr-14 21:01N 73°19' E 008°28'1 0.5 4.3
2015-Apr-14 20:01N 73°19' E 008°30'1 0.6 4.3
2015-Apr-14 19:01N 73°19' E 008°32'1 0.6 4.3
2015-Apr-14 18:01N 73°19' E 008°34'1 0.6 4.3
2015-Apr-14 17:01N 73°19' E 008°36'1 0.6 4.3
2015-Apr-14 16:01N 73°19' E 008°38'1 0.7 4.3
2015-Apr-14 15:01N 73°19' E 008°40'2 2.0 4.2
2015-Apr-14 14:01N 73°20' E 008°47'0 0.0 4.2
2015-Apr-14 12:01N 73°20' E 008°47'1 0.6 4.1
2015-Apr-14 11:01N 73°21' E 008°48'1 0.5 4.1
2015-Apr-14 10:01N 73°21' E 008°49'1 0.5 4.0
2015-Apr-14 09:01N 73°21' E 008°51'0 0.5 4.0
2015-Apr-14 08:01N 73°22' E 008°51'0 0.4 4.0
2015-Apr-14 07:01N 73°22' E 008°52'0 0.4 4.0
2015-Apr-14 06:02N 73°23' E 008°53'0 0.4 4.0
2015-Apr-14 05:01N 73°23' E 008°53'1 0.5 4.0
2015-Apr-14 04:01N 73°23' E 008°54'1 0.6 4.0
2015-Apr-14 03:01N 73°24' E 008°54'1 0.6 3.9
2015-Apr-14 02:01N 73°25' E 008°55'1 0.5 4.0
2015-Apr-14 01:01N 73°25' E 008°55'1 0.7 4.0
2015-Apr-14 00:01N 73°26' E 008°54'1 0.6 4.0
2015-Apr-13 23:01N 73°26' E 008°53'1 0.6 4.0
2015-Apr-13 22:01N 73°27' E 008°51'1 0.6 4.1
2015-Apr-13 21:01N 73°27' E 008°49'1 0.8 4.1
2015-Apr-13 20:01N 73°27' E 008°47'1 0.9 4.1
2015-Apr-13 19:01N 73°28' E 008°44'1 0.9 4.2
2015-Apr-13 18:01N 73°28' E 008°42'1 1.1 4.2
2015-Apr-13 17:01N 73°29' E 008°38'1 1.1 4.3
2015-Apr-13 16:01N 73°29' E 008°35'1 1.1 4.3
2015-Apr-13 15:01N 73°30' E 008°31'1 1.1 4.3
2015-Apr-13 14:01N 73°30' E 008°27'1 1.2 4.3
2015-Apr-13 13:01N 73°29' E 008°23'1 1.1 4.3
2015-Apr-13 12:01N 73°29' E 008°19'1 1.0 4.3
2015-Apr-13 11:01N 73°28' E 008°16'1 1.0 4.4
2015-Apr-13 10:01N 73°28' E 008°13'1 0.9 4.4
2015-Apr-13 09:01N 73°28' E 008°10'1 0.9 4.3
2015-Apr-13 08:01N 73°27' E 008°08'1 0.7 4.4
2015-Apr-13 07:01N 73°27' E 008°06'1 0.7 4.3
2015-Apr-13 06:01N 73°26' E 008°04'1 0.7 4.4
2015-Apr-13 05:01N 73°26' E 008°02'1 0.6 4.3
2015-Apr-13 04:01N 73°26' E 007°59'1 0.6 4.4
2015-Apr-13 03:01N 73°26' E 007°57'1 0.8 4.4
2015-Apr-13 02:01N 73°25' E 007°55'1 0.9 4.4
2015-Apr-13 01:01N 73°25' E 007°52'1 0.9 4.4
2015-Apr-13 00:01N 73°24' E 007°50'1 0.9 4.4
2015-Apr-12 23:01N 73°24' E 007°48'1 0.9 4.4
2015-Apr-12 22:01N 73°23' E 007°46'1 0.9 4.4
2015-Apr-12 21:01N 73°22' E 007°45'1 0.9 4.4
2015-Apr-12 20:01N 73°21' E 007°44'1 0.7 4.4
2015-Apr-12 19:01N 73°20' E 007°44'1 0.7 4.4
2015-Apr-12 18:01N 73°20' E 007°44'1 0.5 4.4
2015-Apr-12 17:01N 73°19' E 007°44'0 0.5 4.4
2015-Apr-12 16:01N 73°19' E 007°44'0 0.4 4.4
2015-Apr-12 15:01N 73°18' E 007°44'0 0.4 4.4
2015-Apr-12 14:01N 73°18' E 007°44'0 0.3 4.4
2015-Apr-12 13:01N 73°18' E 007°44'0 0.4 4.4
2015-Apr-12 12:01N 73°17' E 007°44'0 0.4 4.4
2015-Apr-12 11:01N 73°17' E 007°43'0 0.4 4.4
2015-Apr-12 10:01N 73°16' E 007°43'0 0.4 4.4
2015-Apr-12 09:01N 73°16' E 007°43'0 0.4 4.4
2015-Apr-12 08:01N 73°16' E 007°43'0 0.4 4.4
2015-Apr-12 07:01N 73°15' E 007°43'0 0.5 4.3
2015-Apr-12 06:01N 73°15' E 007°43'1 0.5 4.3
2015-Apr-12 05:01N 73°14' E 007°43'1 0.7 4.4
2015-Apr-12 04:01N 73°14' E 007°44'1 0.5 4.4
2015-Apr-12 03:01N 73°13' E 007°45'0 0.4 4.4
2015-Apr-12 02:01N 73°13' E 007°46'0 0.4 4.4
2015-Apr-12 01:01N 73°13' E 007°47'0 0.5 4.3
2015-Apr-12 00:01N 73°12' E 007°49'1 0.5 4.3
2015-Apr-11 23:01N 73°12' E 007°50'1 0.6 4.4
2015-Apr-11 22:01N 73°12' E 007°53'1 0.8 4.4
2015-Apr-11 21:01N 73°13' E 007°55'1 0.8 4.4
2015-Apr-11 20:01N 73°13' E 007°57'1 0.9 4.4
2015-Apr-11 19:01N 73°13' E 008°00'1 1.0 4.4
2015-Apr-11 18:01N 73°14' E 008°03'1 0.9 4.3
2015-Apr-11 17:01N 73°14' E 008°06'1 0.9 4.2
2015-Apr-11 16:01N 73°15' E 008°08'1 0.9 4.2
2015-Apr-11 15:01N 73°15' E 008°11'1 0.9 4.2
2015-Apr-11 14:01N 73°16' E 008°12'1 0.8 4.4
2015-Apr-11 13:01N 73°17' E 008°14'1 0.8 4.5
2015-Apr-11 12:01N 73°18' E 008°15'1 0.7 4.5
2015-Apr-11 11:01N 73°18' E 008°15'1 0.7 4.5
2015-Apr-11 10:01N 73°19' E 008°16'1 0.6 4.5
2015-Apr-11 09:01N 73°20' E 008°16'1 0.6 4.5
2015-Apr-11 08:01N 73°20' E 008°16'1 0.7 4.5
2015-Apr-11 06:01N 73°21' E 008°17'1 0.7 4.4
2015-Apr-11 05:01N 73°22' E 008°16'1 0.7 4.5
2015-Apr-11 04:01N 73°23' E 008°16'1 1.0 4.5
2015-Apr-11 03:01N 73°24' E 008°15'1 1.0 4.6
2015-Apr-11 02:01N 73°25' E 008°13'1 0.9 4.6
2015-Apr-11 01:01N 73°25' E 008°11'1 0.8 4.6
2015-Apr-11 00:01N 73°26' E 008°10'1 0.8 4.6
2015-Apr-10 23:01N 73°27' E 008°07'1 0.8 4.7
2015-Apr-10 22:01N 73°27' E 008°05'1 0.8 4.6
2015-Apr-10 21:01N 73°27' E 008°03'1 0.7 4.6
2015-Apr-10 20:01N 73°28' E 008°01'1 0.6 4.5
2015-Apr-10 19:01N 73°28' E 007°59'1 0.6 4.5
2015-Apr-10 18:01N 73°29' E 007°58'1 0.5 4.5
2015-Apr-10 17:01N 73°29' E 007°56'1 0.6 4.6
2015-Apr-10 16:01N 73°29' E 007°55'1 0.6 4.6
2015-Apr-10 15:01N 73°30' E 007°53'1 0.7 4.6
2015-Apr-10 14:01N 73°30' E 007°51'1 0.8 4.6
2015-Apr-10 13:01N 73°30' E 007°48'1 0.8 4.6
2015-Apr-10 12:01N 73°30' E 007°45'1 0.8 4.6
2015-Apr-10 11:01N 73°30' E 007°42'1 0.8 4.6
2015-Apr-10 10:01N 73°30' E 007°39'1 0.8 4.6
2015-Apr-10 09:01N 73°30' E 007°37'1 0.8 4.6
2015-Apr-10 08:01N 73°30' E 007°34'1 0.8 4.6
2015-Apr-10 07:01N 73°30' E 007°31'1 0.8 4.6
2015-Apr-10 06:01N 73°29' E 007°29'1 0.7 4.6
2015-Apr-10 05:01N 73°29' E 007°27'1 0.7 4.6
2015-Apr-10 04:01N 73°29' E 007°25'1 0.6 4.6
2015-Apr-10 03:01N 73°28' E 007°24'1 0.6 4.6
2015-Apr-10 02:01N 73°28' E 007°22'1 0.6 4.6
2015-Apr-10 01:01N 73°27' E 007°20'1 0.6 4.6
2015-Apr-10 00:01N 73°27' E 007°19'1 0.6 4.6
2015-Apr-09 23:01N 73°27' E 007°17'1 0.6 4.6
2015-Apr-09 22:01N 73°26' E 007°16'1 0.6 4.6
2015-Apr-09 21:01N 73°26' E 007°14'1 0.6 4.6
2015-Apr-09 20:01N 73°25' E 007°13'1 0.6 4.6
2015-Apr-09 19:01N 73°25' E 007°12'1 0.6 4.6
2015-Apr-09 18:01N 73°24' E 007°11'1 0.6 4.6
2015-Apr-09 17:01N 73°24' E 007°10'1 0.6 4.6
2015-Apr-09 16:01N 73°23' E 007°09'1 0.6 4.6
2015-Apr-09 15:01N 73°23' E 007°08'1 0.6 4.6
2015-Apr-09 14:01N 73°22' E 007°08'0 0.5 4.6
2015-Apr-09 13:01N 73°22' E 007°07'1 0.5 4.6
2015-Apr-09 12:01N 73°21' E 007°06'1 0.5 4.6
2015-Apr-09 11:01N 73°21' E 007°05'1 0.6 4.5
2015-Apr-09 10:01N 73°20' E 007°04'1 1.2 4.5
2015-Apr-09 09:01N 73°19' E 007°02'0 0.0 4.5
2015-Apr-09 08:01N 73°19' E 007°02'1 0.6 4.5
2015-Apr-09 06:01N 73°18' E 007°00'0 0.5 4.5
2015-Apr-09 05:01N 73°18' E 006°60'1 0.5 4.5
2015-Apr-09 04:01N 73°17' E 006°59'0 0.4 4.5
2015-Apr-09 03:01N 73°17' E 006°58'1 0.5 4.5
2015-Apr-09 02:01N 73°16' E 006°57'1 0.6 4.5
2015-Apr-09 01:01N 73°16' E 006°57'1 0.6 4.5
2015-Apr-09 00:01N 73°15' E 006°56'1 0.9 4.4
2015-Apr-08 23:01N 73°14' E 006°55'1 1.0 4.4
2015-Apr-08 22:01N 73°13' E 006°53'1 1.0 4.4
2015-Apr-08 21:01N 73°13' E 006°51'1 0.9 4.4
2015-Apr-08 20:01N 73°12' E 006°49'1 0.6 4.1
2015-Apr-08 19:01N 73°11' E 006°48'0 0.4 3.9
2015-Apr-08 18:01N 73°11' E 006°46'0 0.2 3.9
2015-Apr-08 17:01N 73°11' E 006°46'0 0.3 3.9
2015-Apr-08 16:01N 73°11' E 006°45'   4.0
Track history (hours):
 
Tides and Currents Weather Stations Pressure Air Temp Water Temp Dewpoint Dewpoint Depression Visibility Wind Speed Wind Dir Waves Ship Positions

Drifting buoy 44845

Last reported at 2015-Apr-18 16:01 UTC. Time now 2015-Apr-19 09:30 UTC.
Position N 73°41' E 009°35'.

Water temperature 4.5 ° C

Date/timePositionNaut miles runAvg speedWind from/ knotsBaromVisibWave heightAir tempDewpointWater temp
2015-Apr-18 16:01N 73°41' E 009°35'0 0.4 4.5
2015-Apr-18 15:01N 73°41' E 009°34'1 0.6 4.5
2015-Apr-18 14:01N 73°40' E 009°33'7 0.2 4.5
2015-Apr-17 08:01N 73°43' E 009°10'0 0.3 4.2
2015-Apr-17 07:01N 73°43' E 009°09'0 0.2 4.2
2015-Apr-17 06:01N 73°43' E 009°09'0 0.3 4.3
2015-Apr-17 05:01N 73°44' E 009°09'0 0.3 4.3
2015-Apr-17 04:01N 73°44' E 009°09'0 0.3 4.3
2015-Apr-17 03:01N 73°44' E 009°09'0 0.3 4.2
2015-Apr-17 02:01N 73°44' E 009°08'0 0.3 4.2
2015-Apr-17 01:01N 73°45' E 009°07'0 0.4 4.3
2015-Apr-17 00:01N 73°44' E 009°06'0 0.5 4.3
2015-Apr-16 23:01N 73°44' E 009°05'1 0.5 4.2
2015-Apr-16 22:01N 73°44' E 009°03'1 0.6 4.2
2015-Apr-16 21:01N 73°43' E 009°02'1 0.6 4.1
2015-Apr-16 20:01N 73°43' E 009°01'1 0.6 4.1
2015-Apr-16 19:01N 73°42' E 008°60'1 0.5 4.0
2015-Apr-16 18:01N 73°42' E 008°58'1 0.6 4.0
2015-Apr-16 17:01N 73°42' E 008°56'1 0.8 4.1
2015-Apr-16 16:01N 73°42' E 008°53'1 1.0 4.2
2015-Apr-16 15:01N 73°42' E 008°50'1 1.1 4.3
2015-Apr-16 14:01N 73°42' E 008°46'1 1.2 4.3
2015-Apr-16 13:01N 73°41' E 008°42'1 1.2 4.3
2015-Apr-16 12:01N 73°41' E 008°38'1 1.2 4.3
2015-Apr-16 11:01N 73°40' E 008°34'1 1.1 4.3
2015-Apr-16 10:01N 73°40' E 008°31'1 1.1 4.3
2015-Apr-16 09:01N 73°39' E 008°27'1 1.1 4.3
2015-Apr-16 08:01N 73°39' E 008°24'2 0.9 4.3
2015-Apr-16 06:01N 73°37' E 008°20'1 0.8 4.3
2015-Apr-16 05:01N 73°37' E 008°18'1 0.8 4.3
2015-Apr-16 04:01N 73°36' E 008°17'1 0.8 4.3
2015-Apr-16 03:01N 73°35' E 008°15'1 0.7 4.3
2015-Apr-16 02:01N 73°35' E 008°14'1 0.8 4.3
2015-Apr-16 01:01N 73°34' E 008°14'1 0.7 4.3
2015-Apr-16 00:01N 73°33' E 008°13'1 0.7 4.3
2015-Apr-15 23:01N 73°33' E 008°13'1 0.6 4.3
2015-Apr-15 22:01N 73°32' E 008°13'1 0.5 4.3
2015-Apr-15 21:01N 73°32' E 008°13'1 0.6 4.3
2015-Apr-15 20:01N 73°31' E 008°13'1 0.5 4.3
2015-Apr-15 19:01N 73°30' E 008°13'0 0.5 4.3
2015-Apr-15 18:01N 73°30' E 008°14'1 0.6 4.4
2015-Apr-15 17:01N 73°29' E 008°14'0 0.5 4.4
2015-Apr-15 16:01N 73°29' E 008°15'1 0.5 4.4
2015-Apr-15 15:01N 73°28' E 008°15'1 0.6 4.4
2015-Apr-15 14:01N 73°28' E 008°15'1 0.6 4.3
2015-Apr-15 13:01N 73°27' E 008°16'1 0.5 4.3
2015-Apr-15 12:01N 73°27' E 008°16'1 0.7 4.3
2015-Apr-15 11:01N 73°26' E 008°16'1 0.7 4.3
2015-Apr-15 10:01N 73°25' E 008°17'1 0.7 4.3
2015-Apr-15 09:01N 73°25' E 008°17'1 0.6 4.3
2015-Apr-15 08:01N 73°24' E 008°17'1 0.6 4.3
2015-Apr-15 07:01N 73°24' E 008°18'1 0.5 4.3
2015-Apr-15 06:01N 73°23' E 008°19'1 1.0 4.3
2015-Apr-15 05:01N 73°22' E 008°20'0 0.0 4.3
2015-Apr-15 04:01N 73°22' E 008°20'1 0.5 4.3
2015-Apr-15 03:01N 73°22' E 008°21'1 0.5 4.3
2015-Apr-15 02:01N 73°21' E 008°22'1 0.6 4.2
2015-Apr-15 01:01N 73°21' E 008°23'1 0.5 4.3
2015-Apr-15 00:01N 73°20' E 008°24'1 1.1 4.3
2015-Apr-14 23:01N 73°20' E 008°26'0 0.0 4.3
2015-Apr-14 22:01N 73°20' E 008°26'1 0.6 4.3
2015-Apr-14 21:01N 73°19' E 008°28'1 0.5 4.3
2015-Apr-14 20:01N 73°19' E 008°30'1 0.6 4.3
2015-Apr-14 19:01N 73°19' E 008°32'1 0.6 4.3
2015-Apr-14 18:01N 73°19' E 008°34'1 0.6 4.3
2015-Apr-14 17:01N 73°19' E 008°36'1 0.6 4.3
2015-Apr-14 16:01N 73°19' E 008°38'1 0.7 4.3
2015-Apr-14 15:01N 73°19' E 008°40'2 2.0 4.2
2015-Apr-14 14:01N 73°20' E 008°47'0 0.0 4.2
2015-Apr-14 12:01N 73°20' E 008°47'1 0.6 4.1
2015-Apr-14 11:01N 73°21' E 008°48'1 0.5 4.1
2015-Apr-14 10:01N 73°21' E 008°49'1 0.5 4.0
2015-Apr-14 09:01N 73°21' E 008°51'0 0.5 4.0
2015-Apr-14 08:01N 73°22' E 008°51'0 0.4 4.0
2015-Apr-14 07:01N 73°22' E 008°52'0 0.4 4.0
2015-Apr-14 06:02N 73°23' E 008°53'0 0.4 4.0
2015-Apr-14 05:01N 73°23' E 008°53'1 0.5 4.0
2015-Apr-14 04:01N 73°23' E 008°54'1 0.6 4.0
2015-Apr-14 03:01N 73°24' E 008°54'1 0.6 3.9
2015-Apr-14 02:01N 73°25' E 008°55'1 0.5 4.0
2015-Apr-14 01:01N 73°25' E 008°55'1 0.7 4.0
2015-Apr-14 00:01N 73°26' E 008°54'1 0.6 4.0
2015-Apr-13 23:01N 73°26' E 008°53'1 0.6 4.0
2015-Apr-13 22:01N 73°27' E 008°51'1 0.6 4.1
2015-Apr-13 21:01N 73°27' E 008°49'1 0.8 4.1
2015-Apr-13 20:01N 73°27' E 008°47'1 0.9 4.1
2015-Apr-13 19:01N 73°28' E 008°44'1 0.9 4.2
2015-Apr-13 18:01N 73°28' E 008°42'1 1.1 4.2
2015-Apr-13 17:01N 73°29' E 008°38'1 1.1 4.3
2015-Apr-13 16:01N 73°29' E 008°35'1 1.1 4.3
2015-Apr-13 15:01N 73°30' E 008°31'1 1.1 4.3
2015-Apr-13 14:01N 73°30' E 008°27'1 1.2 4.3
2015-Apr-13 13:01N 73°29' E 008°23'1 1.1 4.3
2015-Apr-13 12:01N 73°29' E 008°19'1 1.0 4.3
2015-Apr-13 11:01N 73°28' E 008°16'1 1.0 4.4
2015-Apr-13 10:01N 73°28' E 008°13'1 0.9 4.4
2015-Apr-13 09:01N 73°28' E 008°10'1 0.9 4.3
2015-Apr-13 08:01N 73°27' E 008°08'1 0.7 4.4
2015-Apr-13 07:01N 73°27' E 008°06'1 0.7 4.3
2015-Apr-13 06:01N 73°26' E 008°04'1 0.7 4.4
2015-Apr-13 05:01N 73°26' E 008°02'1 0.6 4.3
2015-Apr-13 04:01N 73°26' E 007°59'1 0.6 4.4
2015-Apr-13 03:01N 73°26' E 007°57'1 0.8 4.4
2015-Apr-13 02:01N 73°25' E 007°55'1 0.9 4.4
2015-Apr-13 01:01N 73°25' E 007°52'1 0.9 4.4
2015-Apr-13 00:01N 73°24' E 007°50'1 0.9 4.4
2015-Apr-12 23:01N 73°24' E 007°48'1 0.9 4.4
2015-Apr-12 22:01N 73°23' E 007°46'1 0.9 4.4
2015-Apr-12 21:01N 73°22' E 007°45'1 0.9 4.4
2015-Apr-12 20:01N 73°21' E 007°44'1 0.7 4.4
2015-Apr-12 19:01N 73°20' E 007°44'1 0.7 4.4
2015-Apr-12 18:01N 73°20' E 007°44'1 0.5 4.4
2015-Apr-12 17:01N 73°19' E 007°44'0 0.5 4.4
2015-Apr-12 16:01N 73°19' E 007°44'0 0.4 4.4
2015-Apr-12 15:01N 73°18' E 007°44'0 0.4 4.4
2015-Apr-12 14:01N 73°18' E 007°44'0 0.3 4.4
2015-Apr-12 13:01N 73°18' E 007°44'0 0.4 4.4
2015-Apr-12 12:01N 73°17' E 007°44'0 0.4 4.4
2015-Apr-12 11:01N 73°17' E 007°43'0 0.4 4.4
2015-Apr-12 10:01N 73°16' E 007°43'0 0.4 4.4
2015-Apr-12 09:01N 73°16' E 007°43'0 0.4 4.4
2015-Apr-12 08:01N 73°16' E 007°43'0 0.4 4.4
2015-Apr-12 07:01N 73°15' E 007°43'0 0.5 4.3
2015-Apr-12 06:01N 73°15' E 007°43'1 0.5 4.3
2015-Apr-12 05:01N 73°14' E 007°43'1 0.7 4.4
2015-Apr-12 04:01N 73°14' E 007°44'1 0.5 4.4
2015-Apr-12 03:01N 73°13' E 007°45'0 0.4 4.4
2015-Apr-12 02:01N 73°13' E 007°46'0 0.4 4.4
2015-Apr-12 01:01N 73°13' E 007°47'0 0.5 4.3
2015-Apr-12 00:01N 73°12' E 007°49'1 0.5 4.3
2015-Apr-11 23:01N 73°12' E 007°50'1 0.6 4.4
2015-Apr-11 22:01N 73°12' E 007°53'1 0.8 4.4
2015-Apr-11 21:01N 73°13' E 007°55'1 0.8 4.4
2015-Apr-11 20:01N 73°13' E 007°57'1 0.9 4.4
2015-Apr-11 19:01N 73°13' E 008°00'1 1.0 4.4
2015-Apr-11 18:01N 73°14' E 008°03'1 0.9 4.3
2015-Apr-11 17:01N 73°14' E 008°06'1 0.9 4.2
2015-Apr-11 16:01N 73°15' E 008°08'1 0.9 4.2
2015-Apr-11 15:01N 73°15' E 008°11'1 0.9 4.2
2015-Apr-11 14:01N 73°16' E 008°12'1 0.8 4.4
2015-Apr-11 13:01N 73°17' E 008°14'1 0.8 4.5
2015-Apr-11 12:01N 73°18' E 008°15'1 0.7 4.5
2015-Apr-11 11:01N 73°18' E 008°15'1 0.7 4.5
2015-Apr-11 10:01N 73°19' E 008°16'1 0.6 4.5
2015-Apr-11 09:01N 73°20' E 008°16'1 0.6 4.5
2015-Apr-11 08:01N 73°20' E 008°16'1 0.7 4.5
2015-Apr-11 06:01N 73°21' E 008°17'1 0.7 4.4
2015-Apr-11 05:01N 73°22' E 008°16'1 0.7 4.5
2015-Apr-11 04:01N 73°23' E 008°16'1 1.0 4.5
2015-Apr-11 03:01N 73°24' E 008°15'1 1.0 4.6
2015-Apr-11 02:01N 73°25' E 008°13'1 0.9 4.6
2015-Apr-11 01:01N 73°25' E 008°11'1 0.8 4.6
2015-Apr-11 00:01N 73°26' E 008°10'1 0.8 4.6
2015-Apr-10 23:01N 73°27' E 008°07'1 0.8 4.7
2015-Apr-10 22:01N 73°27' E 008°05'1 0.8 4.6
2015-Apr-10 21:01N 73°27' E 008°03'1 0.7 4.6
2015-Apr-10 20:01N 73°28' E 008°01'1 0.6 4.5
2015-Apr-10 19:01N 73°28' E 007°59'1 0.6 4.5
2015-Apr-10 18:01N 73°29' E 007°58'1 0.5 4.5
2015-Apr-10 17:01N 73°29' E 007°56'1 0.6 4.6
2015-Apr-10 16:01N 73°29' E 007°55'1 0.6 4.6
2015-Apr-10 15:01N 73°30' E 007°53'1 0.7 4.6
2015-Apr-10 14:01N 73°30' E 007°51'1 0.8 4.6
2015-Apr-10 13:01N 73°30' E 007°48'1 0.8 4.6
2015-Apr-10 12:01N 73°30' E 007°45'1 0.8 4.6
2015-Apr-10 11:01N 73°30' E 007°42'1 0.8 4.6
2015-Apr-10 10:01N 73°30' E 007°39'1 0.8 4.6
2015-Apr-10 09:01N 73°30' E 007°37'1 0.8 4.6
2015-Apr-10 08:01N 73°30' E 007°34'1 0.8 4.6
2015-Apr-10 07:01N 73°30' E 007°31'1 0.8 4.6
2015-Apr-10 06:01N 73°29' E 007°29'1 0.7 4.6
2015-Apr-10 05:01N 73°29' E 007°27'1 0.7 4.6
2015-Apr-10 04:01N 73°29' E 007°25'1 0.6 4.6
2015-Apr-10 03:01N 73°28' E 007°24'1 0.6 4.6
2015-Apr-10 02:01N 73°28' E 007°22'1 0.6 4.6
2015-Apr-10 01:01N 73°27' E 007°20'1 0.6 4.6
2015-Apr-10 00:01N 73°27' E 007°19'1 0.6 4.6
2015-Apr-09 23:01N 73°27' E 007°17'1 0.6 4.6
2015-Apr-09 22:01N 73°26' E 007°16'1 0.6 4.6
2015-Apr-09 21:01N 73°26' E 007°14'1 0.6 4.6
2015-Apr-09 20:01N 73°25' E 007°13'1 0.6 4.6
2015-Apr-09 19:01N 73°25' E 007°12'1 0.6 4.6
2015-Apr-09 18:01N 73°24' E 007°11'1 0.6 4.6
2015-Apr-09 17:01N 73°24' E 007°10'1 0.6 4.6
2015-Apr-09 16:01N 73°23' E 007°09'1 0.6 4.6
2015-Apr-09 15:01N 73°23' E 007°08'1 0.6 4.6
2015-Apr-09 14:01N 73°22' E 007°08'0 0.5 4.6
2015-Apr-09 13:01N 73°22' E 007°07'1 0.5 4.6
2015-Apr-09 12:01N 73°21' E 007°06'1 0.5 4.6
2015-Apr-09 11:01N 73°21' E 007°05'1 0.6 4.5
2015-Apr-09 10:01N 73°20' E 007°04'1 1.2 4.5
2015-Apr-09 09:01N 73°19' E 007°02'0 0.0 4.5
2015-Apr-09 08:01N 73°19' E 007°02'1 0.6 4.5
2015-Apr-09 06:01N 73°18' E 007°00'0 0.5 4.5
2015-Apr-09 05:01N 73°18' E 006°60'1 0.5 4.5
2015-Apr-09 04:01N 73°17' E 006°59'0 0.4 4.5
2015-Apr-09 03:01N 73°17' E 006°58'1 0.5 4.5
2015-Apr-09 02:01N 73°16' E 006°57'1 0.6 4.5
2015-Apr-09 01:01N 73°16' E 006°57'1 0.6 4.5
2015-Apr-09 00:01N 73°15' E 006°56'1 0.9 4.4
2015-Apr-08 23:01N 73°14' E 006°55'1 1.0 4.4
2015-Apr-08 22:01N 73°13' E 006°53'1 1.0 4.4
2015-Apr-08 21:01N 73°13' E 006°51'1 0.9 4.4
2015-Apr-08 20:01N 73°12' E 006°49'1 0.6 4.1
2015-Apr-08 19:01N 73°11' E 006°48'0 0.4 3.9
2015-Apr-08 18:01N 73°11' E 006°46'0 0.2 3.9
2015-Apr-08 17:01N 73°11' E 006°46'0 0.3 3.9
2015-Apr-08 16:01N 73°11' E 006°45'   4.0

Dump ship's entire track history